createdAt,value
2019-05-03T00:00:13.511Z,84.41
2019-05-03T00:02:26.256Z,84.85
2019-05-03T00:04:38.052Z,84.64
2019-05-03T00:06:48.902Z,84.59
2019-05-03T00:09:01.574Z,84.61
2019-05-03T00:11:12.655Z,84.24
2019-05-03T00:13:23.465Z,84.34
2019-05-03T00:15:36.641Z,84.47
2019-05-03T00:17:47.594Z,84.56
2019-05-03T00:19:58.536Z,84.43
2019-05-03T00:22:09.407Z,84.36
2019-05-03T00:24:22.689Z,84.19
2019-05-03T00:26:33.583Z,84.03
2019-05-03T00:28:44.539Z,83.97
2019-05-03T00:30:55.395Z,84.09
2019-05-03T00:33:06.231Z,83.93
2019-05-03T00:35:31.954Z,84.18
2019-05-03T00:37:44.824Z,84.11
2019-05-03T00:40:06.503Z,84.20
2019-05-03T00:42:17.380Z,84.47
2019-05-03T00:44:28.218Z,84.44
2019-05-03T00:46:39.089Z,84.16
2019-05-03T00:48:49.942Z,84.36
2019-05-03T00:51:02.454Z,84.71
2019-05-03T00:53:13.554Z,84.65
2019-05-03T00:55:24.499Z,84.39
2019-05-03T00:57:35.357Z,85.03
2019-05-03T00:59:46.215Z,85.30
2019-05-03T01:01:59.145Z,85.19
2019-05-03T01:04:11.784Z,85.20
2019-05-03T01:06:22.757Z,85.60
2019-05-03T01:08:33.600Z,85.86
2019-05-03T01:10:44.457Z,85.83
2019-05-03T01:12:57.366Z,85.54
2019-05-03T01:15:13.227Z,85.36
2019-05-03T01:17:24.112Z,86.10
2019-05-03T01:19:34.963Z,86.10
2019-05-03T01:21:45.819Z,86.06
2019-05-03T01:23:56.645Z,86.38
2019-05-03T01:26:07.508Z,86.24
2019-05-03T01:28:18.373Z,86.25
2019-05-03T01:30:29.310Z,86.12
2019-05-03T01:32:41.808Z,85.92
2019-05-03T01:34:52.840Z,85.79
2019-05-03T01:37:03.892Z,85.81
2019-05-03T01:39:14.735Z,85.86
2019-05-03T01:41:25.704Z,85.91
2019-05-03T01:43:36.662Z,85.79
2019-05-03T01:45:47.633Z,86.17
2019-05-03T01:48:06.531Z,86.29
2019-05-03T01:50:19.308Z,85.87
2019-05-03T01:52:32.463Z,85.70
2019-05-03T01:54:43.486Z,85.63
2019-05-03T01:56:58.724Z,85.68
2019-05-03T01:59:07.102Z,85.89
2019-05-03T02:01:22.857Z,86.26
2019-05-03T02:03:35.614Z,86.17
2019-05-03T02:05:52.030Z,85.81
2019-05-03T02:08:03.154Z,85.83
2019-05-03T02:10:14.130Z,86.43
2019-05-03T02:14:43.273Z,86.79
2019-05-03T02:16:54.118Z,86.47
2019-05-03T02:19:05.094Z,86.20
2019-05-03T02:21:15.933Z,85.78
2019-05-03T02:23:26.907Z,85.69
2019-05-03T02:25:37.830Z,85.68
2019-05-03T02:27:48.667Z,85.83
2019-05-03T02:30:02.744Z,85.75
2019-05-03T02:32:13.178Z,85.64
2019-05-03T02:34:24.437Z,85.45
2019-05-03T02:36:35.504Z,85.30
2019-05-03T02:38:46.460Z,85.32
2019-05-03T02:40:57.393Z,85.53
2019-05-03T02:43:16.648Z,85.52
2019-05-03T02:45:29.629Z,85.59
2019-05-03T02:47:42.368Z,85.72
2019-05-03T02:49:56.234Z,85.55
2019-05-03T02:52:09.210Z,85.83
2019-05-03T02:54:20.088Z,86.01
2019-05-03T02:56:31.192Z,85.82
2019-05-03T02:58:42.003Z,85.79
2019-05-03T03:00:56.370Z,85.99
2019-05-03T03:03:07.319Z,86.14
2019-05-03T03:05:18.584Z,85.41
2019-05-03T03:07:30.436Z,85.73
2019-05-03T03:09:41.740Z,85.66
2019-05-03T03:11:55.954Z,85.80
2019-05-03T03:14:10.082Z,85.88
2019-05-03T03:16:21.063Z,85.75
2019-05-03T03:18:37.870Z,85.91
2019-05-03T03:20:51.625Z,86.39
2019-05-03T03:23:02.563Z,86.43
2019-05-03T03:25:17.574Z,86.35
2019-05-03T03:27:30.249Z,86.16
2019-05-03T03:29:42.910Z,86.02
2019-05-03T03:32:18.715Z,86.14
2019-05-03T03:34:54.511Z,85.84
2019-05-03T03:37:04.652Z,86.09
2019-05-03T03:39:11.982Z,86.08
2019-05-03T03:41:24.969Z,86.04
2019-05-03T03:43:36.487Z,86.25
2019-05-03T03:45:49.074Z,86.49
2019-05-03T03:48:00.506Z,87.05
2019-05-03T03:50:11.545Z,86.55
2019-05-03T03:52:25.490Z,86.48
2019-05-03T03:54:37.070Z,86.62
2019-05-03T03:57:02.211Z,86.37
2019-05-03T03:59:05.884Z,86.32
2019-05-03T04:01:17.008Z,86.44
2019-05-03T04:03:28.038Z,86.55
2019-05-03T04:05:39.179Z,86.87
2019-05-03T04:07:50.143Z,86.60
2019-05-03T04:10:01.296Z,86.08
2019-05-03T04:12:12.331Z,86.26
2019-05-03T04:14:27.968Z,86.47
2019-05-03T04:16:40.837Z,86.62
2019-05-03T04:18:55.098Z,86.62
2019-05-03T04:21:06.259Z,86.51
2019-05-03T04:23:17.207Z,86.38
2019-05-03T04:25:28.154Z,86.09
2019-05-03T04:27:39.923Z,85.84
2019-05-03T04:29:50.854Z,85.83
2019-05-03T04:32:06.301Z,86.08
2019-05-03T04:34:17.205Z,86.29
2019-05-03T04:36:28.132Z,85.77
2019-05-03T04:38:39.031Z,85.53
2019-05-03T04:40:50.070Z,85.67
2019-05-03T04:43:01.043Z,85.53
2019-05-03T04:45:12.017Z,85.41
2019-05-03T04:47:22.858Z,85.37
2019-05-03T04:49:36.278Z,85.46
2019-05-03T04:51:46.784Z,85.02
2019-05-03T04:54:11.518Z,85.33
2019-05-03T04:56:22.501Z,84.39
2019-05-03T04:58:36.101Z,83.84
2019-05-03T05:00:46.660Z,83.50
2019-05-03T05:02:57.770Z,83.54
2019-05-03T05:05:09.525Z,83.59
2019-05-03T05:07:20.474Z,83.22
2019-05-03T05:09:31.420Z,83.50
2019-05-03T05:11:42.319Z,83.36
2019-05-03T05:13:53.200Z,83.36
2019-05-03T05:16:05.918Z,83.21
2019-05-03T05:18:31.172Z,83.32
2019-05-03T05:20:46.915Z,83.75
2019-05-03T05:22:57.750Z,84.11
2019-05-03T05:25:10.831Z,84.01
2019-05-03T05:27:26.337Z,83.39
2019-05-03T05:29:39.085Z,83.58
2019-05-03T05:31:49.927Z,83.72
2019-05-03T05:34:00.812Z,83.25
2019-05-03T05:36:11.668Z,83.28
2019-05-03T05:38:25.582Z,83.36
2019-05-03T05:40:36.661Z,83.29
2019-05-03T05:42:47.604Z,83.64
2019-05-03T05:44:58.460Z,83.46
2019-05-03T05:47:17.193Z,83.65
2019-05-03T05:49:40.973Z,83.62
2019-05-03T05:51:51.824Z,84.24
2019-05-03T05:54:02.779Z,83.10
2019-05-03T05:56:27.801Z,82.94
2019-05-03T05:58:58.745Z,83.14
2019-05-03T06:01:25.003Z,82.73
2019-05-03T06:03:36.061Z,83.25
2019-05-03T06:05:47.032Z,82.69
2019-05-03T06:10:47.420Z,82.98
2019-05-03T06:13:00.175Z,83.36
2019-05-03T06:15:14.930Z,83.76
2019-05-03T06:17:30.798Z,84.73
2019-05-03T06:19:49.706Z,84.60
2019-05-03T06:22:20.615Z,85.30
2019-05-03T06:24:48.604Z,84.94
2019-05-03T06:27:05.047Z,84.76
2019-05-03T06:29:16.019Z,84.89
2019-05-03T06:31:28.889Z,85.03
2019-05-03T06:33:39.754Z,84.98
2019-05-03T06:35:50.636Z,84.88
2019-05-03T06:38:01.464Z,85.06
2019-05-03T06:40:14.783Z,84.98
2019-05-03T06:42:25.597Z,84.55
2019-05-03T06:44:36.542Z,84.60
2019-05-03T06:46:49.136Z,84.36
2019-05-03T06:49:01.063Z,84.41
2019-05-03T06:51:17.852Z,83.73
2019-05-03T06:53:25.551Z,84.05
2019-05-03T06:55:39.997Z,84.35
2019-05-03T06:57:49.865Z,83.78
2019-05-03T07:00:08.414Z,83.29
2019-05-03T07:02:38.021Z,82.86
2019-05-03T07:04:53.723Z,83.13
2019-05-03T07:07:06.602Z,83.37
2019-05-03T07:09:31.197Z,82.91
2019-05-03T07:11:42.045Z,83.16
2019-05-03T07:13:54.894Z,83.37
2019-05-03T07:16:05.730Z,83.14
2019-05-03T07:18:16.596Z,82.95
2019-05-03T07:20:27.534Z,83.37
2019-05-03T07:22:38.391Z,82.77
2019-05-03T07:24:49.245Z,82.54
2019-05-03T07:27:00.178Z,82.95
2019-05-03T07:29:11.059Z,82.16
2019-05-03T07:31:22.103Z,82.77
2019-05-03T07:33:34.863Z,82.58
2019-05-03T07:35:45.800Z,82.98
2019-05-03T07:37:56.675Z,83.36
2019-05-03T07:40:07.829Z,82.60
2019-05-03T07:42:18.663Z,82.43
2019-05-03T07:44:29.537Z,82.54
2019-05-03T07:46:40.502Z,82.20
2019-05-03T07:48:51.368Z,82.08
2019-05-03T07:51:02.232Z,82.19
2019-05-03T07:53:14.880Z,82.17
2019-05-03T07:55:45.705Z,81.95
2019-05-03T07:57:58.578Z,80.83
2019-05-03T08:00:10.345Z,79.80
2019-05-03T08:02:24.292Z,79.50
2019-05-03T08:04:35.911Z,80.19
2019-05-03T08:06:46.822Z,80.34
2019-05-03T08:08:57.910Z,81.01
2019-05-03T08:11:08.864Z,79.16
2019-05-03T08:13:19.829Z,79.16
2019-05-03T08:15:30.690Z,78.77
2019-05-03T08:17:41.758Z,78.01
2019-05-03T08:19:55.167Z,78.30
2019-05-03T08:22:06.378Z,77.47
2019-05-03T08:24:17.270Z,76.14
2019-05-03T08:26:28.125Z,73.64
2019-05-03T08:28:39.074Z,73.09
2019-05-03T08:30:51.856Z,73.50
2019-05-03T08:33:24.954Z,71.39
2019-05-03T08:35:37.839Z,71.83
2019-05-03T08:37:50.595Z,70.28
2019-05-03T08:40:05.156Z,70.67
2019-05-03T08:42:18.131Z,69.41
2019-05-03T08:44:29.109Z,66.04
2019-05-03T08:46:39.969Z,64.40
2019-05-03T08:48:50.830Z,67.22
2019-05-03T08:51:04.508Z,65.40
2019-05-03T08:53:15.832Z,66.30
2019-05-03T08:55:26.729Z,66.78
2019-05-03T08:57:37.684Z,67.92
2019-05-03T08:59:48.574Z,67.00
2019-05-03T09:02:03.566Z,68.29
2019-05-03T09:04:12.438Z,69.65
2019-05-03T09:06:24.803Z,69.34
2019-05-03T09:08:35.925Z,69.87
2019-05-03T09:10:48.787Z,69.00
2019-05-03T09:13:10.669Z,70.20
2019-05-03T09:15:21.824Z,68.82
2019-05-03T09:17:32.813Z,70.40
2019-05-03T09:19:45.302Z,70.17
2019-05-03T09:21:56.391Z,68.47
2019-05-03T09:24:07.358Z,69.46
2019-05-03T09:26:18.350Z,68.35
2019-05-03T09:28:29.350Z,65.97
2019-05-03T09:30:40.259Z,66.05
2019-05-03T09:32:51.107Z,67.98
2019-05-03T09:35:05.535Z,68.45
2019-05-03T09:37:16.518Z,69.22
2019-05-03T09:39:27.358Z,69.02
2019-05-03T09:41:38.314Z,68.88
2019-05-03T09:43:49.171Z,69.64
2019-05-03T09:46:00.038Z,66.63
2019-05-03T09:48:10.887Z,66.58
2019-05-03T09:50:21.848Z,65.96
2019-05-03T09:52:35.328Z,66.73
2019-05-03T09:54:47.480Z,64.93
2019-05-03T09:56:59.200Z,66.82
2019-05-03T09:59:10.062Z,66.62
2019-05-03T10:01:20.911Z,66.05
2019-05-03T10:03:31.795Z,67.73
2019-05-03T10:05:42.729Z,66.54
2019-05-03T10:07:53.609Z,67.69
2019-05-03T10:10:05.730Z,66.77
2019-05-03T10:12:18.530Z,66.40
2019-05-03T10:14:29.380Z,63.49
2019-05-03T10:16:51.424Z,63.30
2019-05-03T10:19:02.518Z,63.50
2019-05-03T10:21:14.809Z,62.76
2019-05-03T10:23:35.772Z,64.18
2019-05-03T10:25:46.701Z,61.23
2019-05-03T10:27:57.659Z,63.58
2019-05-03T10:30:12.964Z,58.61
2019-05-03T10:32:41.687Z,60.08
2019-05-03T10:34:54.338Z,58.10
2019-05-03T10:37:07.073Z,57.38
2019-05-03T10:39:17.939Z,59.93
2019-05-03T10:41:28.890Z,59.64
2019-05-03T10:43:39.868Z,62.96
2019-05-03T10:45:50.818Z,60.74
2019-05-03T10:48:01.772Z,61.97
2019-05-03T10:50:12.842Z,59.32
2019-05-03T10:52:25.849Z,59.88
2019-05-03T10:54:36.764Z,60.91
2019-05-03T10:56:49.634Z,58.86
2019-05-03T10:59:02.399Z,57.44
2019-05-03T11:01:14.852Z,54.46
2019-05-03T11:03:25.697Z,55.86
2019-05-03T11:05:36.786Z,51.93
2019-05-03T11:07:47.632Z,52.64
2019-05-03T11:09:58.588Z,55.11
2019-05-03T11:12:09.436Z,55.23
2019-05-03T11:14:20.291Z,54.34
2019-05-03T11:16:31.227Z,54.71
2019-05-03T11:18:42.159Z,54.94
2019-05-03T11:20:54.561Z,55.12
2019-05-03T11:23:06.381Z,55.71
2019-05-03T11:25:17.394Z,57.39
2019-05-03T11:27:30.139Z,57.01
2019-05-03T11:29:41.023Z,56.85
2019-05-03T11:32:08.255Z,57.41
2019-05-03T11:34:22.554Z,55.52
2019-05-03T11:36:37.941Z,56.35
2019-05-03T11:38:50.700Z,54.60
2019-05-03T11:41:01.794Z,54.96
2019-05-03T11:43:12.848Z,52.60
2019-05-03T11:45:24.624Z,53.72
2019-05-03T11:47:35.865Z,53.55
2019-05-03T11:49:46.881Z,53.24
2019-05-03T11:51:57.778Z,52.35
2019-05-03T11:54:08.619Z,51.83
2019-05-03T11:56:19.494Z,49.35
2019-05-03T11:58:30.349Z,51.52
2019-05-03T12:00:41.221Z,52.43
2019-05-03T12:02:55.614Z,53.59
2019-05-03T12:05:08.773Z,53.78
2019-05-03T12:07:38.973Z,53.85
2019-05-03T12:09:45.238Z,53.99
2019-05-03T12:11:56.326Z,50.54
2019-05-03T12:14:10.767Z,50.80
2019-05-03T12:16:48.810Z,49.49
2019-05-03T12:18:47.744Z,50.23
2019-05-03T12:20:48.498Z,52.01
2019-05-03T12:23:01.083Z,49.71
2019-05-03T12:25:14.008Z,50.47
2019-05-03T12:27:25.566Z,50.25
2019-05-03T12:29:36.524Z,45.33
2019-05-03T12:31:47.415Z,45.86
2019-05-03T12:33:58.376Z,46.12
2019-05-03T12:36:09.550Z,46.77
2019-05-03T12:38:20.610Z,47.44
2019-05-03T12:40:31.663Z,46.76
2019-05-03T12:42:42.569Z,44.95
2019-05-03T12:44:55.154Z,46.85
2019-05-03T12:47:06.289Z,47.03
2019-05-03T12:49:17.170Z,47.09
2019-05-03T12:51:28.334Z,46.20
2019-05-03T12:53:41.205Z,47.40
2019-05-03T12:55:52.175Z,46.18
2019-05-03T12:58:05.880Z,46.22
2019-05-03T13:00:31.393Z,46.84
2019-05-03T13:02:46.891Z,45.11
2019-05-03T13:04:58.039Z,46.73
2019-05-03T13:07:27.630Z,47.17
2019-05-03T13:09:38.526Z,45.37
2019-05-03T13:11:55.683Z,46.78
2019-05-03T13:14:04.805Z,45.28
2019-05-03T13:16:17.115Z,44.60
2019-05-03T13:18:28.014Z,45.42
2019-05-03T13:20:38.854Z,43.87
2019-05-03T13:22:49.684Z,44.58
2019-05-03T13:25:00.773Z,42.76
2019-05-03T13:27:11.712Z,43.40
2019-05-03T13:29:22.695Z,42.96
2019-05-03T13:31:35.431Z,43.38
2019-05-03T13:33:46.317Z,41.21
2019-05-03T13:35:57.314Z,42.75
2019-05-03T13:38:08.298Z,46.33
2019-05-03T13:40:19.237Z,43.92
2019-05-03T13:42:30.347Z,44.02
2019-05-03T13:44:41.239Z,44.28
2019-05-03T13:46:52.077Z,44.02
2019-05-03T13:49:05.387Z,45.34
2019-05-03T13:51:16.536Z,45.87
2019-05-03T13:53:27.353Z,46.01
2019-05-03T13:55:38.348Z,44.86
2019-05-03T13:57:49.211Z,45.87
2019-05-03T14:00:00.178Z,44.63
2019-05-03T14:02:15.540Z,43.74
2019-05-03T14:04:23.973Z,44.75
2019-05-03T14:06:36.621Z,42.76
2019-05-03T14:08:47.559Z,43.91
2019-05-03T14:10:58.516Z,45.33
2019-05-03T14:13:09.365Z,47.35
2019-05-03T14:15:20.415Z,46.75
2019-05-03T14:17:31.343Z,45.98
2019-05-03T14:19:42.367Z,46.14
2019-05-03T14:21:55.117Z,48.80
2019-05-03T14:24:09.555Z,47.82
2019-05-03T14:26:20.485Z,45.93
2019-05-03T14:28:31.344Z,45.04
2019-05-03T14:30:45.330Z,45.56
2019-05-03T14:32:56.254Z,43.55
2019-05-03T14:35:07.506Z,43.47
2019-05-03T14:37:18.373Z,45.03
2019-05-03T14:39:29.231Z,43.21
2019-05-03T14:41:40.120Z,44.84
2019-05-03T14:43:50.987Z,43.96
2019-05-03T14:46:01.923Z,45.33
2019-05-03T14:48:15.072Z,43.94
2019-05-03T14:50:25.751Z,44.13
2019-05-03T14:52:36.729Z,45.77
2019-05-03T14:54:49.607Z,43.36
2019-05-03T14:57:11.449Z,43.76
2019-05-03T14:59:26.117Z,44.81
2019-05-03T15:01:51.230Z,45.59
2019-05-03T15:04:02.288Z,45.25
2019-05-03T15:06:15.349Z,46.13
2019-05-03T15:08:26.131Z,46.55
2019-05-03T15:10:37.034Z,47.73
2019-05-03T15:12:47.927Z,48.09
2019-05-03T15:14:58.963Z,48.51
2019-05-03T15:17:09.830Z,48.65
2019-05-03T15:19:20.791Z,46.92
2019-05-03T15:21:31.754Z,47.47
2019-05-03T15:23:42.654Z,47.28
2019-05-03T15:25:54.575Z,46.09
2019-05-03T15:28:05.681Z,45.23
2019-05-03T15:30:16.633Z,45.54
2019-05-03T15:32:27.578Z,44.97
2019-05-03T15:34:38.538Z,45.97
2019-05-03T15:36:49.397Z,45.59
2019-05-03T15:39:00.278Z,45.60
2019-05-03T15:41:11.251Z,45.16
2019-05-03T15:43:28.485Z,46.55
2019-05-03T15:45:48.109Z,48.61
2019-05-03T15:48:00.927Z,46.82
2019-05-03T15:50:12.304Z,47.25
2019-05-03T15:52:24.679Z,47.74
2019-05-03T15:54:35.720Z,47.76
2019-05-03T15:56:46.664Z,49.06
2019-05-03T15:58:57.551Z,48.87
2019-05-03T16:01:09.336Z,48.66
2019-05-03T16:03:20.183Z,48.49
2019-05-03T16:05:31.193Z,49.04
2019-05-03T16:07:42.087Z,47.78
2019-05-03T16:09:55.087Z,48.50
2019-05-03T16:12:05.891Z,49.55
2019-05-03T16:14:16.801Z,49.96
2019-05-03T16:16:27.640Z,50.63
2019-05-03T16:18:38.545Z,50.08
2019-05-03T16:20:49.381Z,50.67
2019-05-03T16:23:00.447Z,49.94
2019-05-03T16:25:11.632Z,50.22
2019-05-03T16:27:30.235Z,52.49
2019-05-03T16:29:41.230Z,52.10
2019-05-03T16:31:52.165Z,52.32
2019-05-03T16:34:04.308Z,52.34
2019-05-03T16:36:15.395Z,53.82
2019-05-03T16:38:26.262Z,54.38
2019-05-03T16:40:37.264Z,54.67
2019-05-03T16:42:48.209Z,54.52
2019-05-03T16:44:59.069Z,55.24
2019-05-03T16:47:09.937Z,55.44
2019-05-03T16:49:20.916Z,55.79
2019-05-03T16:51:31.916Z,58.78
2019-05-03T16:53:44.501Z,60.32
2019-05-03T16:55:55.669Z,61.61
2019-05-03T16:58:06.612Z,62.32
2019-05-03T17:00:18.084Z,62.76
2019-05-03T17:02:28.959Z,63.50
2019-05-03T17:04:45.181Z,65.69
2019-05-03T17:07:15.237Z,62.41
2019-05-03T17:09:37.405Z,63.18
2019-05-03T17:11:54.596Z,60.55
2019-05-03T17:14:06.021Z,61.48
2019-05-03T17:16:17.080Z,61.56
2019-05-03T17:18:28.261Z,61.88
2019-05-03T17:20:39.096Z,61.04
2019-05-03T17:22:50.084Z,60.44
2019-05-03T17:25:01.128Z,60.74
2019-05-03T17:27:12.104Z,59.72
2019-05-03T17:29:24.628Z,60.29
2019-05-03T17:31:35.523Z,60.34
2019-05-03T17:33:53.123Z,60.09
2019-05-03T17:35:59.293Z,60.11
2019-05-03T17:38:10.227Z,61.30
2019-05-03T17:40:23.214Z,61.36
2019-05-03T17:42:54.600Z,61.49
2019-05-03T17:45:05.935Z,62.44
2019-05-03T17:47:16.920Z,62.89
2019-05-03T17:49:27.772Z,63.90
2019-05-03T17:51:52.933Z,63.95
2019-05-03T17:54:05.699Z,64.54
2019-05-03T17:56:24.501Z,64.57
2019-05-03T17:58:44.328Z,64.30
2019-05-03T18:01:13.782Z,63.67
2019-05-03T18:03:26.579Z,64.45
2019-05-03T18:05:39.447Z,64.54
2019-05-03T18:08:01.052Z,64.10
2019-05-03T18:10:12.903Z,63.64
2019-05-03T18:12:24.402Z,64.49
2019-05-03T18:14:35.471Z,64.95
2019-05-03T18:16:46.336Z,65.58
2019-05-03T18:18:57.335Z,66.87
2019-05-03T18:21:08.208Z,67.06
2019-05-03T18:23:19.216Z,66.70
2019-05-03T18:25:30.121Z,67.60
2019-05-03T18:27:41.121Z,68.02
2019-05-03T18:29:52.045Z,68.74
2019-05-03T18:32:03.088Z,69.00
2019-05-03T18:34:19.763Z,69.17
2019-05-03T18:36:26.918Z,69.29
2019-05-03T18:38:38.589Z,68.99
2019-05-03T18:40:49.539Z,69.08
2019-05-03T18:43:04.431Z,68.21
2019-05-03T18:45:34.788Z,68.84
2019-05-03T18:47:45.860Z,69.41
2019-05-03T18:49:56.767Z,69.51
2019-05-03T18:52:07.798Z,69.85
2019-05-03T18:54:18.786Z,70.69
2019-05-03T18:56:29.750Z,71.07
2019-05-03T18:58:40.820Z,71.85
2019-05-03T19:00:51.944Z,72.13
2019-05-03T19:03:02.906Z,72.56
2019-05-03T19:05:15.267Z,72.57
2019-05-03T19:07:31.058Z,72.95
2019-05-03T19:09:46.572Z,72.41
2019-05-03T19:11:59.435Z,71.68
2019-05-03T19:14:12.257Z,71.87
2019-05-03T19:16:41.618Z,71.99
2019-05-03T19:18:52.644Z,72.04
2019-05-03T19:21:04.667Z,72.82
2019-05-03T19:23:15.559Z,73.05
2019-05-03T19:25:28.419Z,73.07
2019-05-03T19:27:39.281Z,73.13
2019-05-03T19:29:50.129Z,73.38
2019-05-03T19:32:01.279Z,73.99
2019-05-03T19:34:12.237Z,74.09
2019-05-03T19:36:23.228Z,73.77
2019-05-03T19:38:35.167Z,73.73
2019-05-03T19:40:46.236Z,73.56
2019-05-03T19:42:59.022Z,73.67
2019-05-03T19:45:10.447Z,74.16
2019-05-03T19:47:21.321Z,73.99
2019-05-03T19:49:32.211Z,74.09
2019-05-03T19:51:45.046Z,73.94
2019-05-03T19:53:56.087Z,73.96
2019-05-03T19:56:07.171Z,74.14
2019-05-03T19:58:18.145Z,74.57
2019-05-03T20:00:31.042Z,74.01
2019-05-03T20:02:45.415Z,74.03
2019-05-03T20:05:14.978Z,74.26
2019-05-03T20:07:27.960Z,73.96
2019-05-03T20:09:38.907Z,74.15
2019-05-03T20:11:49.895Z,74.37
2019-05-03T20:14:00.883Z,74.71
2019-05-03T20:16:12.073Z,74.83
2019-05-03T20:18:22.911Z,74.86
2019-05-03T20:20:33.781Z,74.84
2019-05-03T20:22:45.102Z,75.04
2019-05-03T20:24:57.541Z,74.78
2019-05-03T20:27:08.542Z,75.07
2019-05-03T20:29:19.416Z,74.80
2019-05-03T20:31:30.463Z,74.97
2019-05-03T20:33:41.334Z,74.71
2019-05-03T20:35:54.326Z,74.62
2019-05-03T20:38:05.088Z,74.83
2019-05-03T20:40:16.190Z,75.25
2019-05-03T20:42:45.692Z,75.55
2019-05-03T20:44:58.474Z,76.22
2019-05-03T20:47:14.923Z,75.74
2019-05-03T20:49:25.983Z,75.81
2019-05-03T20:51:36.943Z,75.06
2019-05-03T20:53:47.839Z,75.03
2019-05-03T20:55:58.784Z,75.55
2019-05-03T20:58:11.499Z,75.49
2019-05-03T21:00:25.608Z,75.15
2019-05-03T21:02:36.916Z,74.98
2019-05-03T21:04:47.773Z,74.90
2019-05-03T21:06:58.738Z,74.95
2019-05-03T21:09:09.599Z,74.48
2019-05-03T21:11:20.475Z,74.48
2019-05-03T21:13:39.896Z,74.75
2019-05-03T21:15:46.023Z,75.06
2019-05-03T21:18:04.992Z,75.04
2019-05-03T21:20:35.930Z,75.49
2019-05-03T21:22:46.979Z,75.42
2019-05-03T21:25:02.521Z,75.32
2019-05-03T21:27:13.449Z,75.42
2019-05-03T21:29:24.320Z,75.29
2019-05-03T21:31:35.324Z,75.00
2019-05-03T21:33:46.340Z,74.87
2019-05-03T21:35:57.283Z,75.04
2019-05-03T21:38:08.134Z,75.03
2019-05-03T21:40:19.022Z,74.87
2019-05-03T21:42:30.000Z,74.74
2019-05-03T21:44:41.075Z,74.85
2019-05-03T21:46:51.925Z,75.00
2019-05-03T21:49:16.934Z,74.80
2019-05-03T21:51:27.827Z,74.47
2019-05-03T21:53:38.687Z,74.21
2019-05-03T21:55:49.550Z,74.38
2019-05-03T21:58:00.394Z,74.30
2019-05-03T22:00:14.590Z,73.92
2019-05-03T22:02:25.537Z,73.73
2019-05-03T22:04:36.403Z,73.59
2019-05-03T22:06:47.360Z,73.80
2019-05-03T22:08:58.516Z,73.34
2019-05-03T22:11:09.365Z,73.18
2019-05-03T22:13:20.334Z,73.56
2019-05-03T22:15:48.185Z,73.25
2019-05-03T22:18:17.942Z,73.20
2019-05-03T22:20:35.064Z,72.77
2019-05-03T22:22:47.927Z,73.46
2019-05-03T22:25:04.750Z,73.55
2019-05-03T22:27:15.722Z,73.42
2019-05-03T22:29:26.695Z,73.28
2019-05-03T22:31:37.567Z,73.45
2019-05-03T22:33:48.443Z,73.87
2019-05-03T22:36:08.321Z,74.12
2019-05-03T22:38:12.085Z,74.13
2019-05-03T22:40:24.989Z,74.53
2019-05-03T22:42:35.811Z,75.08
2019-05-03T22:44:46.676Z,75.30
2019-05-03T22:46:57.705Z,74.98
2019-05-03T22:49:08.613Z,74.63
2019-05-03T22:51:19.504Z,74.60
2019-05-03T22:53:30.366Z,74.23
2019-05-03T22:55:41.208Z,74.56
2019-05-03T22:57:52.129Z,74.19
2019-05-03T23:00:06.406Z,74.53
2019-05-03T23:02:17.657Z,74.71
2019-05-03T23:04:28.617Z,74.27
2019-05-03T23:06:39.507Z,74.83
2019-05-03T23:08:50.352Z,74.87
2019-05-03T23:11:01.211Z,74.92
2019-05-03T23:13:12.066Z,74.93
2019-05-03T23:15:24.422Z,75.38
2019-05-03T23:17:35.574Z,75.56
2019-05-03T23:19:48.320Z,75.43
2019-05-03T23:22:06.850Z,75.37
2019-05-03T23:24:17.790Z,75.43
2019-05-03T23:26:28.628Z,75.83
2019-05-03T23:28:39.601Z,75.78
2019-05-03T23:30:50.433Z,75.31
2019-05-03T23:33:01.349Z,75.23
2019-05-03T23:35:12.467Z,75.19
2019-05-03T23:37:23.440Z,75.44
2019-05-03T23:39:34.292Z,75.36
2019-05-03T23:41:45.137Z,75.23
2019-05-03T23:43:56.004Z,75.04
2019-05-03T23:46:07.233Z,75.33
2019-05-03T23:48:18.109Z,75.33
2019-05-03T23:50:28.938Z,75.05
2019-05-03T23:52:39.838Z,74.97
2019-05-03T23:54:50.684Z,75.36
2019-05-03T23:57:03.409Z,75.55
2019-05-03T23:59:14.873Z,75.84
